sensor_id;sensor_type;location;lat;lon;timestamp;P1;durP1;ratioP1;P2;durP2;ratioP2
2129;SDS011;1071;52.544;13.374;2022-10-15T00:01:03;17.47;;;15.67;;
2129;SDS011;1071;52.544;13.374;2022-10-15T00:03:31;19.30;;;17.30;;
2129;SDS011;1071;52.544;13.374;2022-10-15T00:06:02;18.50;;;14.63;;
2129;SDS011;1071;52.544;13.374;2022-10-15T00:08:31;18.60;;;16.70;;
2129;SDS011;1071;52.544;13.374;2022-10-15T00:11:01;19.53;;;17.00;;
2129;SDS011;1071;52.544;13.374;2022-10-15T00:13:29;17.70;;;15.80;;
2129;SDS011;1071;52.544;13.374;2022-10-15T00:15:58;20.30;;;17.43;;
2129;SDS011;1071;52.544;13.374;2022-10-15T00:18:26;19.93;;;16.73;;
2129;SDS011;1071;52.544;13.374;2022-10-15T00:20:55;19.37;;;15.60;;
2129;SDS011;1071;52.544;13.374;2022-10-15T00:23:22;16.47;;;14.87;;
2129;SDS011;1071;52.544;13.374;2022-10-15T00:25:50;18.57;;;16.07;;
2129;SDS011;1071;52.544;13.374;2022-10-15T00:28:27;17.20;;;15.50;;
2129;SDS011;1071;52.544;13.374;2022-10-15T00:31:02;20.17;;;16.80;;
2129;SDS011;1071;52.544;13.374;2022-10-15T00:33:33;18.53;;;16.60;;
2129;SDS011;1071;52.544;13.374;2022-10-15T00:36:07;18.80;;;16.47;;
2129;SDS011;1071;52.544;13.374;2022-10-15T00:38:37;18.90;;;16.83;;
2129;SDS011;1071;52.544;13.374;2022-10-15T00:41:05;18.57;;;15.57;;
2129;SDS011;1071;52.544;13.374;2022-10-15T00:43:38;17.73;;;15.93;;
2129;SDS011;1071;52.544;13.374;2022-10-15T00:46:15;20.23;;;17.83;;
2129;SDS011;1071;52.544;13.374;2022-10-15T00:48:45;16.80;;;15.17;;
2129;SDS011;1071;52.544;13.374;2022-10-15T00:51:17;19.90;;;16.43;;
2129;SDS011;1071;52.544;13.374;2022-10-15T00:53:46;17.60;;;15.80;;
2129;SDS011;1071;52.544;13.374;2022-10-15T00:56:19;18.47;;;16.70;;
2129;SDS011;1071;52.544;13.374;2022-10-15T00:58:55;18.03;;;16.23;;
2129;SDS011;1071;52.544;13.374;2022-10-15T01:01:30;22.80;;;18.03;;
2129;SDS011;1071;52.544;13.374;2022-10-15T01:03:58;20.87;;;18.77;;
2129;SDS011;1071;52.544;13.374;2022-10-15T01:06:28;21.93;;;19.70;;
2129;SDS011;1071;52.544;13.374;2022-10-15T01:08:58;21.67;;;19.37;;
2129;SDS011;1071;52.544;13.374;2022-10-15T01:11:28;30.93;;;27.63;;
2129;SDS011;1071;52.544;13.374;2022-10-15T01:14:07;31.50;;;26.00;;
2129;SDS011;1071;52.544;13.374;2022-10-15T01:16:53;31.60;;;26.83;;
2129;SDS011;1071;52.544;13.374;2022-10-15T01:19:27;28.00;;;25.00;;
2129;SDS011;1071;52.544;13.374;2022-10-15T01:22:08;28.70;;;24.57;;
2129;SDS011;1071;52.544;13.374;2022-10-15T01:24:55;26.00;;;22.67;;
2129;SDS011;1071;52.544;13.374;2022-10-15T01:27:36;23.87;;;20.53;;
2129;SDS011;1071;52.544;13.374;2022-10-15T01:32:59;22.23;;;18.93;;
2129;SDS011;1071;52.544;13.374;2022-10-15T01:35:36;23.00;;;18.30;;
2129;SDS011;1071;52.544;13.374;2022-10-15T01:38:23;23.50;;;19.53;;
2129;SDS011;1071;52.544;13.374;2022-10-15T01:41:00;20.23;;;17.60;;
2129;SDS011;1071;52.544;13.374;2022-10-15T01:43:32;19.20;;;16.77;;
2129;SDS011;1071;52.544;13.374;2022-10-15T01:46:05;22.50;;;18.47;;
2129;SDS011;1071;52.544;13.374;2022-10-15T01:48:36;22.03;;;18.70;;
2129;SDS011;1071;52.544;13.374;2022-10-15T01:51:05;19.73;;;17.63;;
2129;SDS011;1071;52.544;13.374;2022-10-15T01:53:33;20.47;;;17.20;;
2129;SDS011;1071;52.544;13.374;2022-10-15T01:56:05;19.07;;;16.47;;
2129;SDS011;1071;52.544;13.374;2022-10-15T01:58:35;18.90;;;16.83;;
2129;SDS011;1071;52.544;13.374;2022-10-15T02:01:07;18.20;;;15.60;;
2129;SDS011;1071;52.544;13.374;2022-10-15T02:03:42;21.30;;;19.07;;
2129;SDS011;1071;52.544;13.374;2022-10-15T02:06:12;23.30;;;17.17;;
2129;SDS011;1071;52.544;13.374;2022-10-15T02:08:44;23.30;;;18.57;;
2129;SDS011;1071;52.544;13.374;2022-10-15T02:11:20;23.20;;;20.70;;
2129;SDS011;1071;52.544;13.374;2022-10-15T02:13:56;18.70;;;16.77;;
2129;SDS011;1071;52.544;13.374;2022-10-15T02:16:35;20.53;;;18.53;;
2129;SDS011;1071;52.544;13.374;2022-10-15T02:19:06;17.53;;;15.73;;
2129;SDS011;1071;52.544;13.374;2022-10-15T02:21:42;19.27;;;17.07;;
2129;SDS011;1071;52.544;13.374;2022-10-15T02:24:13;19.83;;;17.43;;
2129;SDS011;1071;52.544;13.374;2022-10-15T02:26:43;20.77;;;18.17;;
2129;SDS011;1071;52.544;13.374;2022-10-15T02:29:13;19.63;;;17.13;;
2129;SDS011;1071;52.544;13.374;2022-10-15T02:31:49;24.87;;;20.67;;
2129;SDS011;1071;52.544;13.374;2022-10-15T02:34:18;20.70;;;16.97;;
2129;SDS011;1071;52.544;13.374;2022-10-15T02:36:50;20.27;;;18.17;;
2129;SDS011;1071;52.544;13.374;2022-10-15T02:39:20;18.80;;;16.83;;
2129;SDS011;1071;52.544;13.374;2022-10-15T02:41:49;24.27;;;18.47;;
2129;SDS011;1071;52.544;13.374;2022-10-15T02:44:18;19.07;;;17.00;;
2129;SDS011;1071;52.544;13.374;2022-10-15T02:46:45;20.87;;;16.73;;
2129;SDS011;1071;52.544;13.374;2022-10-15T02:49:13;21.43;;;18.43;;
2129;SDS011;1071;52.544;13.374;2022-10-15T02:51:41;21.30;;;19.20;;
2129;SDS011;1071;52.544;13.374;2022-10-15T02:54:08;19.60;;;17.60;;
2129;SDS011;1071;52.544;13.374;2022-10-15T02:56:35;22.93;;;18.13;;
2129;SDS011;1071;52.544;13.374;2022-10-15T02:59:03;20.30;;;16.50;;
2129;SDS011;1071;52.544;13.374;2022-10-15T03:01:31;17.10;;;15.40;;
2129;SDS011;1071;52.544;13.374;2022-10-15T03:03:58;16.90;;;15.20;;
2129;SDS011;1071;52.544;13.374;2022-10-15T03:06:27;18.50;;;16.53;;
2129;SDS011;1071;52.544;13.374;2022-10-15T03:08:57;18.27;;;16.37;;
2129;SDS011;1071;52.544;13.374;2022-10-15T03:11:24;17.47;;;15.57;;
2129;SDS011;1071;52.544;13.374;2022-10-15T03:13:51;19.10;;;17.10;;
2129;SDS011;1071;52.544;13.374;2022-10-15T03:16:18;18.77;;;16.90;;
2129;SDS011;1071;52.544;13.374;2022-10-15T03:18:45;16.50;;;14.90;;
2129;SDS011;1071;52.544;13.374;2022-10-15T03:21:12;20.27;;;18.23;;
2129;SDS011;1071;52.544;13.374;2022-10-15T03:23:43;17.97;;;16.27;;
2129;SDS011;1071;52.544;13.374;2022-10-15T03:26:10;20.47;;;17.00;;
2129;SDS011;1071;52.544;13.374;2022-10-15T03:28:37;21.43;;;18.50;;
2129;SDS011;1071;52.544;13.374;2022-10-15T03:31:04;17.50;;;15.63;;
2129;SDS011;1071;52.544;13.374;2022-10-15T03:33:32;20.20;;;15.50;;
2129;SDS011;1071;52.544;13.374;2022-10-15T03:35:59;16.50;;;14.80;;
2129;SDS011;1071;52.544;13.374;2022-10-15T03:38:26;16.80;;;15.10;;
2129;SDS011;1071;52.544;13.374;2022-10-15T03:40:58;14.90;;;12.80;;
2129;SDS011;1071;52.544;13.374;2022-10-15T03:43:25;16.27;;;14.67;;
2129;SDS011;1071;52.544;13.374;2022-10-15T03:45:52;17.63;;;14.73;;
2129;SDS011;1071;52.544;13.374;2022-10-15T03:48:19;18.50;;;15.70;;
2129;SDS011;1071;52.544;13.374;2022-10-15T03:50:46;17.23;;;15.43;;
2129;SDS011;1071;52.544;13.374;2022-10-15T03:53:13;17.53;;;15.73;;
2129;SDS011;1071;52.544;13.374;2022-10-15T03:55:40;18.00;;;16.10;;
2129;SDS011;1071;52.544;13.374;2022-10-15T03:58:09;18.50;;;14.67;;
2129;SDS011;1071;52.544;13.374;2022-10-15T04:00:36;15.23;;;13.80;;
2129;SDS011;1071;52.544;13.374;2022-10-15T04:03:06;18.17;;;16.27;;
2129;SDS011;1071;52.544;13.374;2022-10-15T04:05:33;18.13;;;16.30;;
2129;SDS011;1071;52.544;13.374;2022-10-15T04:08:00;14.73;;;13.13;;
2129;SDS011;1071;52.544;13.374;2022-10-15T04:10:28;15.20;;;13.67;;
2129;SDS011;1071;52.544;13.374;2022-10-15T04:12:56;15.77;;;14.20;;
2129;SDS011;1071;52.544;13.374;2022-10-15T04:15:24;16.93;;;15.27;;
2129;SDS011;1071;52.544;13.374;2022-10-15T04:17:52;20.40;;;15.13;;
2129;SDS011;1071;52.544;13.374;2022-10-15T04:20:20;15.30;;;13.80;;
2129;SDS011;1071;52.544;13.374;2022-10-15T04:22:47;19.63;;;17.63;;
2129;SDS011;1071;52.544;13.374;2022-10-15T04:25:14;18.30;;;16.37;;
2129;SDS011;1071;52.544;13.374;2022-10-15T04:27:41;15.83;;;14.23;;
2129;SDS011;1071;52.544;13.374;2022-10-15T04:30:09;14.97;;;13.47;;
2129;SDS011;1071;52.544;13.374;2022-10-15T04:32:39;15.47;;;13.87;;
2129;SDS011;1071;52.544;13.374;2022-10-15T04:35:06;15.77;;;14.10;;
2129;SDS011;1071;52.544;13.374;2022-10-15T04:37:33;22.00;;;17.90;;
2129;SDS011;1071;52.544;13.374;2022-10-15T04:40:00;17.43;;;15.53;;
2129;SDS011;1071;52.544;13.374;2022-10-15T04:42:55;18.20;;;16.40;;
2129;SDS011;1071;52.544;13.374;2022-10-15T04:45:22;16.33;;;14.63;;
2129;SDS011;1071;52.544;13.374;2022-10-15T04:47:51;17.10;;;15.03;;
2129;SDS011;1071;52.544;13.374;2022-10-15T04:50:18;15.80;;;14.20;;
2129;SDS011;1071;52.544;13.374;2022-10-15T04:52:45;19.33;;;16.37;;
2129;SDS011;1071;52.544;13.374;2022-10-15T04:55:12;15.83;;;14.20;;
2129;SDS011;1071;52.544;13.374;2022-10-15T04:57:39;18.00;;;15.37;;
2129;SDS011;1071;52.544;13.374;2022-10-15T05:00:07;14.03;;;12.63;;
2129;SDS011;1071;52.544;13.374;2022-10-15T05:02:48;15.20;;;13.60;;
2129;SDS011;1071;52.544;13.374;2022-10-15T05:05:20;16.53;;;14.83;;
2129;SDS011;1071;52.544;13.374;2022-10-15T05:07:47;15.83;;;14.13;;
2129;SDS011;1071;52.544;13.374;2022-10-15T05:10:14;18.83;;;14.50;;
2129;SDS011;1071;52.544;13.374;2022-10-15T05:12:41;16.57;;;14.87;;
2129;SDS011;1071;52.544;13.374;2022-10-15T05:15:08;16.13;;;14.63;;
2129;SDS011;1071;52.544;13.374;2022-10-15T05:17:35;16.60;;;14.87;;
2129;SDS011;1071;52.544;13.374;2022-10-15T05:20:05;16.67;;;14.63;;
2129;SDS011;1071;52.544;13.374;2022-10-15T05:22:32;15.97;;;13.43;;
2129;SDS011;1071;52.544;13.374;2022-10-15T05:25:01;13.60;;;12.30;;
2129;SDS011;1071;52.544;13.374;2022-10-15T05:27:33;15.97;;;14.20;;
2129;SDS011;1071;52.544;13.374;2022-10-15T05:30:00;14.60;;;13.10;;
2129;SDS011;1071;52.544;13.374;2022-10-15T05:32:28;14.43;;;13.10;;
2129;SDS011;1071;52.544;13.374;2022-10-15T05:34:55;14.27;;;12.50;;
2129;SDS011;1071;52.544;13.374;2022-10-15T05:37:23;17.27;;;15.50;;
2129;SDS011;1071;52.544;13.374;2022-10-15T05:39:50;17.07;;;15.37;;
2129;SDS011;1071;52.544;13.374;2022-10-15T05:42:17;14.37;;;13.07;;
2129;SDS011;1071;52.544;13.374;2022-10-15T05:44:48;15.43;;;13.00;;
2129;SDS011;1071;52.544;13.374;2022-10-15T05:47:15;16.23;;;14.50;;
2129;SDS011;1071;52.544;13.374;2022-10-15T05:49:42;20.43;;;16.57;;
2129;SDS011;1071;52.544;13.374;2022-10-15T05:52:10;18.57;;;15.93;;
2129;SDS011;1071;52.544;13.374;2022-10-15T05:54:39;20.10;;;14.07;;
2129;SDS011;1071;52.544;13.374;2022-10-15T05:57:06;17.00;;;15.30;;
2129;SDS011;1071;52.544;13.374;2022-10-15T05:59:33;15.00;;;13.40;;
2129;SDS011;1071;52.544;13.374;2022-10-15T06:02:00;14.57;;;13.00;;
2129;SDS011;1071;52.544;13.374;2022-10-15T06:04:28;17.13;;;15.40;;
2129;SDS011;1071;52.544;13.374;2022-10-15T06:06:56;15.13;;;13.63;;
2129;SDS011;1071;52.544;13.374;2022-10-15T06:09:23;15.97;;;14.43;;
2129;SDS011;1071;52.544;13.374;2022-10-15T06:11:52;16.37;;;14.70;;
2129;SDS011;1071;52.544;13.374;2022-10-15T06:14:19;15.07;;;13.50;;
2129;SDS011;1071;52.544;13.374;2022-10-15T06:16:46;13.83;;;12.43;;
2129;SDS011;1071;52.544;13.374;2022-10-15T06:19:14;16.20;;;12.87;;
2129;SDS011;1071;52.544;13.374;2022-10-15T06:21:41;14.43;;;12.50;;
2129;SDS011;1071;52.544;13.374;2022-10-15T06:24:08;13.40;;;12.00;;
2129;SDS011;1071;52.544;13.374;2022-10-15T06:26:36;14.33;;;13.03;;
2129;SDS011;1071;52.544;13.374;2022-10-15T06:29:04;15.67;;;13.20;;
2129;SDS011;1071;52.544;13.374;2022-10-15T06:31:31;13.77;;;12.30;;
2129;SDS011;1071;52.544;13.374;2022-10-15T06:33:58;13.70;;;12.30;;
2129;SDS011;1071;52.544;13.374;2022-10-15T06:36:25;14.57;;;12.97;;
2129;SDS011;1071;52.544;13.374;2022-10-15T06:38:52;13.67;;;12.37;;
2129;SDS011;1071;52.544;13.374;2022-10-15T06:41:19;19.30;;;15.93;;
2129;SDS011;1071;52.544;13.374;2022-10-15T06:43:47;16.00;;;14.40;;
2129;SDS011;1071;52.544;13.374;2022-10-15T06:46:17;14.33;;;12.77;;
2129;SDS011;1071;52.544;13.374;2022-10-15T06:48:44;14.13;;;12.73;;
2129;SDS011;1071;52.544;13.374;2022-10-15T06:51:11;14.73;;;13.23;;
2129;SDS011;1071;52.544;13.374;2022-10-15T06:53:39;15.70;;;14.00;;
2129;SDS011;1071;52.544;13.374;2022-10-15T06:56:08;15.83;;;13.67;;
2129;SDS011;1071;52.544;13.374;2022-10-15T06:58:35;14.30;;;12.80;;
2129;SDS011;1071;52.544;13.374;2022-10-15T07:01:05;16.90;;;14.23;;
2129;SDS011;1071;52.544;13.374;2022-10-15T07:03:35;16.80;;;15.10;;
2129;SDS011;1071;52.544;13.374;2022-10-15T07:06:03;15.63;;;14.00;;
2129;SDS011;1071;52.544;13.374;2022-10-15T07:11:32;12.60;;;11.50;;
2129;SDS011;1071;52.544;13.374;2022-10-15T07:14:07;22.63;;;20.23;;
2129;SDS011;1071;52.544;13.374;2022-10-15T07:16:55;17.80;;;15.90;;
2129;SDS011;1071;52.544;13.374;2022-10-15T07:19:24;17.60;;;14.70;;
2129;SDS011;1071;52.544;13.374;2022-10-15T07:21:54;15.20;;;13.80;;
2129;SDS011;1071;52.544;13.374;2022-10-15T07:24:23;17.17;;;15.37;;
2129;SDS011;1071;52.544;13.374;2022-10-15T07:27:01;18.43;;;16.47;;
2129;SDS011;1071;52.544;13.374;2022-10-15T07:29:31;17.87;;;15.10;;
2129;SDS011;1071;52.544;13.374;2022-10-15T07:32:00;14.30;;;12.87;;
2129;SDS011;1071;52.544;13.374;2022-10-15T07:34:29;13.13;;;11.93;;
2129;SDS011;1071;52.544;13.374;2022-10-15T07:36:58;11.53;;;10.33;;
2129;SDS011;1071;52.544;13.374;2022-10-15T07:39:29;13.00;;;11.60;;
2129;SDS011;1071;52.544;13.374;2022-10-15T07:42:03;14.57;;;13.10;;
2129;SDS011;1071;52.544;13.374;2022-10-15T07:44:30;14.80;;;13.20;;
2129;SDS011;1071;52.544;13.374;2022-10-15T07:46:59;14.60;;;13.07;;
2129;SDS011;1071;52.544;13.374;2022-10-15T07:49:26;15.00;;;13.40;;
2129;SDS011;1071;52.544;13.374;2022-10-15T07:51:54;13.57;;;12.20;;
2129;SDS011;1071;52.544;13.374;2022-10-15T07:54:22;14.60;;;12.60;;
2129;SDS011;1071;52.544;13.374;2022-10-15T07:56:49;13.60;;;12.30;;
2129;SDS011;1071;52.544;13.374;2022-10-15T07:59:16;9.80;;;9.00;;
2129;SDS011;1071;52.544;13.374;2022-10-15T08:01:43;11.43;;;10.30;;
2129;SDS011;1071;52.544;13.374;2022-10-15T08:04:10;15.40;;;13.80;;
2129;SDS011;1071;52.544;13.374;2022-10-15T08:06:40;15.23;;;13.13;;
2129;SDS011;1071;52.544;13.374;2022-10-15T08:09:15;12.40;;;11.30;;
2129;SDS011;1071;52.544;13.374;2022-10-15T08:11:42;11.60;;;10.50;;
2129;SDS011;1071;52.544;13.374;2022-10-15T08:14:09;11.23;;;9.87;;
2129;SDS011;1071;52.544;13.374;2022-10-15T08:16:38;13.60;;;11.93;;
2129;SDS011;1071;52.544;13.374;2022-10-15T08:19:05;11.60;;;10.47;;
2129;SDS011;1071;52.544;13.374;2022-10-15T08:21:35;11.67;;;10.43;;
2129;SDS011;1071;52.544;13.374;2022-10-15T08:24:02;12.03;;;10.77;;
2129;SDS011;1071;52.544;13.374;2022-10-15T08:26:35;13.03;;;10.80;;
2129;SDS011;1071;52.544;13.374;2022-10-15T08:29:02;10.40;;;9.43;;
2129;SDS011;1071;52.544;13.374;2022-10-15T08:31:29;10.73;;;9.67;;
2129;SDS011;1071;52.544;13.374;2022-10-15T08:33:58;10.70;;;9.70;;
2129;SDS011;1071;52.544;13.374;2022-10-15T08:36:25;11.33;;;10.17;;
2129;SDS011;1071;52.544;13.374;2022-10-15T08:38:53;11.47;;;10.20;;
2129;SDS011;1071;52.544;13.374;2022-10-15T08:41:26;10.33;;;9.33;;
2129;SDS011;1071;52.544;13.374;2022-10-15T08:43:59;11.00;;;10.00;;
2129;SDS011;1071;52.544;13.374;2022-10-15T08:46:28;11.97;;;10.87;;
2129;SDS011;1071;52.544;13.374;2022-10-15T08:49:00;11.27;;;10.27;;
2129;SDS011;1071;52.544;13.374;2022-10-15T08:51:33;10.30;;;9.30;;
2129;SDS011;1071;52.544;13.374;2022-10-15T08:54:12;9.53;;;8.73;;
2129;SDS011;1071;52.544;13.374;2022-10-15T08:56:42;9.87;;;8.87;;
2129;SDS011;1071;52.544;13.374;2022-10-15T08:59:16;10.33;;;9.30;;
2129;SDS011;1071;52.544;13.374;2022-10-15T09:01:53;11.30;;;10.27;;
2129;SDS011;1071;52.544;13.374;2022-10-15T09:04:37;8.07;;;7.27;;
2129;SDS011;1071;52.544;13.374;2022-10-15T09:07:22;8.23;;;7.43;;
2129;SDS011;1071;52.544;13.374;2022-10-15T09:10:29;10.67;;;9.67;;
2129;SDS011;1071;52.544;13.374;2022-10-15T09:13:11;9.07;;;8.20;;
2129;SDS011;1071;52.544;13.374;2022-10-15T09:15:46;11.07;;;9.97;;
2129;SDS011;1071;52.544;13.374;2022-10-15T09:18:22;10.23;;;9.27;;
2129;SDS011;1071;52.544;13.374;2022-10-15T09:20:54;11.50;;;10.40;;
2129;SDS011;1071;52.544;13.374;2022-10-15T09:23:27;14.07;;;12.43;;
2129;SDS011;1071;52.544;13.374;2022-10-15T09:25:57;12.53;;;11.27;;
2129;SDS011;1071;52.544;13.374;2022-10-15T09:28:37;11.97;;;10.87;;
2129;SDS011;1071;52.544;13.374;2022-10-15T09:31:16;9.80;;;8.90;;
2129;SDS011;1071;52.544;13.374;2022-10-15T09:34:17;10.10;;;9.10;;
2129;SDS011;1071;52.544;13.374;2022-10-15T09:37:02;10.90;;;9.83;;
2129;SDS011;1071;52.544;13.374;2022-10-15T09:39:39;12.70;;;11.40;;
2129;SDS011;1071;52.544;13.374;2022-10-15T09:42:22;9.80;;;8.83;;
2129;SDS011;1071;52.544;13.374;2022-10-15T09:44:58;10.07;;;9.17;;
2129;SDS011;1071;52.544;13.374;2022-10-15T09:47:43;11.10;;;9.70;;
2129;SDS011;1071;52.544;13.374;2022-10-15T09:50:11;10.43;;;9.43;;
2129;SDS011;1071;52.544;13.374;2022-10-15T09:52:44;10.87;;;9.77;;
2129;SDS011;1071;52.544;13.374;2022-10-15T09:55:33;11.20;;;10.17;;
2129;SDS011;1071;52.544;13.374;2022-10-15T09:58:32;12.23;;;10.70;;
2129;SDS011;1071;52.544;13.374;2022-10-15T10:01:19;11.80;;;10.60;;
2129;SDS011;1071;52.544;13.374;2022-10-15T10:03:50;11.83;;;10.00;;
2129;SDS011;1071;52.544;13.374;2022-10-15T10:06:20;11.00;;;9.90;;
2129;SDS011;1071;52.544;13.374;2022-10-15T10:08:53;11.20;;;10.07;;
2129;SDS011;1071;52.544;13.374;2022-10-15T10:11:23;9.20;;;8.40;;
2129;SDS011;1071;52.544;13.374;2022-10-15T10:13:55;10.60;;;9.53;;
2129;SDS011;1071;52.544;13.374;2022-10-15T10:16:25;11.23;;;9.93;;
2129;SDS011;1071;52.544;13.374;2022-10-15T10:19:02;12.10;;;10.90;;
2129;SDS011;1071;52.544;13.374;2022-10-15T10:21:32;12.90;;;10.60;;
2129;SDS011;1071;52.544;13.374;2022-10-15T10:24:23;11.23;;;9.27;;
2129;SDS011;1071;52.544;13.374;2022-10-15T10:30:12;9.00;;;8.10;;
2129;SDS011;1071;52.544;13.374;2022-10-15T10:32:39;8.83;;;8.10;;
2129;SDS011;1071;52.544;13.374;2022-10-15T10:35:15;9.17;;;8.30;;
2129;SDS011;1071;52.544;13.374;2022-10-15T10:37:47;9.90;;;9.10;;
2129;SDS011;1071;52.544;13.374;2022-10-15T10:40:21;10.63;;;9.50;;
2129;SDS011;1071;52.544;13.374;2022-10-15T10:43:07;13.13;;;11.73;;
2129;SDS011;1071;52.544;13.374;2022-10-15T10:45:37;10.10;;;9.10;;
2129;SDS011;1071;52.544;13.374;2022-10-15T10:48:17;10.37;;;9.37;;
2129;SDS011;1071;52.544;13.374;2022-10-15T10:50:46;11.47;;;10.40;;
2129;SDS011;1071;52.544;13.374;2022-10-15T10:53:19;11.80;;;10.60;;
2129;SDS011;1071;52.544;13.374;2022-10-15T10:55:47;12.83;;;11.57;;
2129;SDS011;1071;52.544;13.374;2022-10-15T10:58:17;11.03;;;9.93;;
2129;SDS011;1071;52.544;13.374;2022-10-15T11:00:46;11.17;;;10.07;;
2129;SDS011;1071;52.544;13.374;2022-10-15T11:03:19;10.10;;;8.83;;
2129;SDS011;1071;52.544;13.374;2022-10-15T11:05:57;10.10;;;9.20;;
2129;SDS011;1071;52.544;13.374;2022-10-15T11:08:34;8.73;;;7.93;;
2129;SDS011;1071;52.544;13.374;2022-10-15T11:11:09;9.83;;;8.90;;
2129;SDS011;1071;52.544;13.374;2022-10-15T11:13:48;9.33;;;8.53;;
2129;SDS011;1071;52.544;13.374;2022-10-15T11:16:26;8.80;;;7.93;;
2129;SDS011;1071;52.544;13.374;2022-10-15T11:19:08;8.93;;;8.13;;
2129;SDS011;1071;52.544;13.374;2022-10-15T11:21:50;9.00;;;8.30;;
2129;SDS011;1071;52.544;13.374;2022-10-15T11:24:27;9.80;;;8.90;;
2129;SDS011;1071;52.544;13.374;2022-10-15T11:27:03;8.70;;;7.90;;
2129;SDS011;1071;52.544;13.374;2022-10-15T11:29:41;8.67;;;7.93;;
2129;SDS011;1071;52.544;13.374;2022-10-15T11:32:33;9.73;;;8.93;;
2129;SDS011;1071;52.544;13.374;2022-10-15T11:35:22;9.17;;;8.37;;
2129;SDS011;1071;52.544;13.374;2022-10-15T11:38:03;8.93;;;8.13;;
2129;SDS011;1071;52.544;13.374;2022-10-15T11:40:40;8.07;;;7.37;;
2129;SDS011;1071;52.544;13.374;2022-10-15T11:43:30;8.60;;;7.87;;
2129;SDS011;1071;52.544;13.374;2022-10-15T11:46:11;9.33;;;8.40;;
2129;SDS011;1071;52.544;13.374;2022-10-15T11:48:48;7.27;;;6.57;;
2129;SDS011;1071;52.544;13.374;2022-10-15T11:51:25;9.50;;;7.83;;
2129;SDS011;1071;52.544;13.374;2022-10-15T11:54:15;7.30;;;6.60;;
2129;SDS011;1071;52.544;13.374;2022-10-15T11:56:51;6.87;;;6.27;;
2129;SDS011;1071;52.544;13.374;2022-10-15T11:59:28;7.33;;;6.63;;
2129;SDS011;1071;52.544;13.374;2022-10-15T12:01:59;6.50;;;5.83;;
2129;SDS011;1071;52.544;13.374;2022-10-15T12:04:29;12.60;;;8.50;;
2129;SDS011;1071;52.544;13.374;2022-10-15T12:07:04;7.43;;;6.80;;
2129;SDS011;1071;52.544;13.374;2022-10-15T12:09:41;7.03;;;6.43;;
2129;SDS011;1071;52.544;13.374;2022-10-15T12:12:16;7.43;;;6.77;;
2129;SDS011;1071;52.544;13.374;2022-10-15T12:14:53;6.20;;;5.67;;
2129;SDS011;1071;52.544;13.374;2022-10-15T12:17:35;7.70;;;6.90;;
2129;SDS011;1071;52.544;13.374;2022-10-15T12:20:10;6.83;;;6.23;;
2129;SDS011;1071;52.544;13.374;2022-10-15T12:25:41;5.73;;;5.23;;
2129;SDS011;1071;52.544;13.374;2022-10-15T12:28:15;5.37;;;4.83;;
2129;SDS011;1071;52.544;13.374;2022-10-15T12:30:58;7.33;;;6.63;;
2129;SDS011;1071;52.544;13.374;2022-10-15T12:33:29;6.50;;;5.90;;
2129;SDS011;1071;52.544;13.374;2022-10-15T12:37:22;8.37;;;7.60;;
2129;SDS011;1071;52.544;13.374;2022-10-15T12:39:21;9.17;;;8.37;;
2129;SDS011;1071;52.544;13.374;2022-10-15T12:42:20;11.20;;;10.13;;
2129;SDS011;1071;52.544;13.374;2022-10-15T12:44:51;9.43;;;8.53;;
2129;SDS011;1071;52.544;13.374;2022-10-15T12:50:16;7.20;;;6.50;;
2129;SDS011;1071;52.544;13.374;2022-10-15T12:52:51;9.37;;;8.57;;
2129;SDS011;1071;52.544;13.374;2022-10-15T12:55:36;6.73;;;6.13;;
2129;SDS011;1071;52.544;13.374;2022-10-15T13:01:03;5.90;;;5.40;;
2129;SDS011;1071;52.544;13.374;2022-10-15T13:03:33;5.23;;;4.83;;
2129;SDS011;1071;52.544;13.374;2022-10-15T13:09:02;6.10;;;5.60;;
2129;SDS011;1071;52.544;13.374;2022-10-15T13:11:32;5.87;;;5.37;;
2129;SDS011;1071;52.544;13.374;2022-10-15T13:14:10;4.50;;;4.20;;
2129;SDS011;1071;52.544;13.374;2022-10-15T13:16:49;5.27;;;4.87;;
2129;SDS011;1071;52.544;13.374;2022-10-15T13:19:16;5.17;;;4.77;;
2129;SDS011;1071;52.544;13.374;2022-10-15T13:22:01;6.57;;;6.07;;
2129;SDS011;1071;52.544;13.374;2022-10-15T13:24:54;8.00;;;7.30;;
2129;SDS011;1071;52.544;13.374;2022-10-15T13:27:58;4.90;;;4.50;;
2129;SDS011;1071;52.544;13.374;2022-10-15T13:30:27;4.70;;;4.30;;
2129;SDS011;1071;52.544;13.374;2022-10-15T13:32:54;3.77;;;3.47;;
2129;SDS011;1071;52.544;13.374;2022-10-15T13:35:23;5.00;;;4.60;;
2129;SDS011;1071;52.544;13.374;2022-10-15T13:37:54;4.67;;;4.27;;
2129;SDS011;1071;52.544;13.374;2022-10-15T13:40:25;3.30;;;3.10;;
2129;SDS011;1071;52.544;13.374;2022-10-15T13:42:57;4.30;;;3.90;;
2129;SDS011;1071;52.544;13.374;2022-10-15T13:45:24;3.47;;;3.20;;
2129;SDS011;1071;52.544;13.374;2022-10-15T13:47:54;2.80;;;2.60;;
2129;SDS011;1071;52.544;13.374;2022-10-15T13:50:22;3.00;;;2.80;;
2129;SDS011;1071;52.544;13.374;2022-10-15T13:52:51;6.43;;;5.83;;
2129;SDS011;1071;52.544;13.374;2022-10-15T13:55:22;5.47;;;4.90;;
2129;SDS011;1071;52.544;13.374;2022-10-15T13:57:57;4.60;;;4.17;;
2129;SDS011;1071;52.544;13.374;2022-10-15T14:00:33;4.33;;;4.03;;
2129;SDS011;1071;52.544;13.374;2022-10-15T14:03:19;3.43;;;3.23;;
2129;SDS011;1071;52.544;13.374;2022-10-15T14:05:52;4.20;;;3.10;;
2129;SDS011;1071;52.544;13.374;2022-10-15T14:08:22;2.80;;;2.60;;
2129;SDS011;1071;52.544;13.374;2022-10-15T14:10:51;2.93;;;2.73;;
2129;SDS011;1071;52.544;13.374;2022-10-15T14:13:19;3.17;;;2.97;;
2129;SDS011;1071;52.544;13.374;2022-10-15T14:16:00;4.63;;;3.30;;
2129;SDS011;1071;52.544;13.374;2022-10-15T14:18:41;2.93;;;2.73;;
2129;SDS011;1071;52.544;13.374;2022-10-15T14:21:11;3.97;;;3.57;;
2129;SDS011;1071;52.544;13.374;2022-10-15T14:23:41;4.40;;;4.10;;
2129;SDS011;1071;52.544;13.374;2022-10-15T14:26:10;7.73;;;6.97;;
2129;SDS011;1071;52.544;13.374;2022-10-15T14:28:39;7.50;;;6.20;;
2129;SDS011;1071;52.544;13.374;2022-10-15T14:31:14;6.67;;;5.80;;
2129;SDS011;1071;52.544;13.374;2022-10-15T14:33:56;4.53;;;4.20;;
2129;SDS011;1071;52.544;13.374;2022-10-15T14:36:24;3.93;;;3.63;;
2129;SDS011;1071;52.544;13.374;2022-10-15T14:38:53;3.90;;;3.60;;
2129;SDS011;1071;52.544;13.374;2022-10-15T14:41:23;5.60;;;5.20;;
2129;SDS011;1071;52.544;13.374;2022-10-15T14:43:59;5.40;;;5.00;;
2129;SDS011;1071;52.544;13.374;2022-10-15T14:46:38;4.83;;;4.07;;
2129;SDS011;1071;52.544;13.374;2022-10-15T14:49:21;3.30;;;3.00;;
2129;SDS011;1071;52.544;13.374;2022-10-15T14:51:55;3.23;;;3.03;;
2129;SDS011;1071;52.544;13.374;2022-10-15T14:54:26;4.80;;;4.40;;
2129;SDS011;1071;52.544;13.374;2022-10-15T14:56:57;4.87;;;4.43;;
2129;SDS011;1071;52.544;13.374;2022-10-15T14:59:27;4.30;;;3.90;;
2129;SDS011;1071;52.544;13.374;2022-10-15T15:01:59;4.30;;;4.00;;
2129;SDS011;1071;52.544;13.374;2022-10-15T15:04:38;4.17;;;3.70;;
2129;SDS011;1071;52.544;13.374;2022-10-15T15:07:13;3.80;;;3.60;;
2129;SDS011;1071;52.544;13.374;2022-10-15T15:09:42;3.80;;;3.50;;
2129;SDS011;1071;52.544;13.374;2022-10-15T15:12:13;3.87;;;3.57;;
2129;SDS011;1071;52.544;13.374;2022-10-15T15:14:43;5.20;;;3.40;;
2129;SDS011;1071;52.544;13.374;2022-10-15T15:17:18;4.13;;;3.03;;
2129;SDS011;1071;52.544;13.374;2022-10-15T15:19:49;3.07;;;2.87;;
2129;SDS011;1071;52.544;13.374;2022-10-15T15:22:20;3.60;;;3.30;;
2129;SDS011;1071;52.544;13.374;2022-10-15T15:24:51;3.77;;;3.47;;
2129;SDS011;1071;52.544;13.374;2022-10-15T15:27:20;3.90;;;3.60;;
2129;SDS011;1071;52.544;13.374;2022-10-15T15:29:49;3.73;;;2.97;;
2129;SDS011;1071;52.544;13.374;2022-10-15T15:32:22;3.97;;;3.67;;
2129;SDS011;1071;52.544;13.374;2022-10-15T15:34:50;3.53;;;3.23;;